»·PEaware :: AAL211 KPSP-KSFO

AAL211 :: KPSP-KSFO

FLIGHT INFORMATION

Flight Status: Arrived
Operator:
American Airlines
More flights by this operator :: More flights under this callsign
Pilot: Robert M. (1649)
Aircraft: BOEING 737-800
(B738)
More flights by this aircraft type
Origin: KPSP Palm Springs Intl
United States
Destination: KSFO San Francisco Intl
United States
More flights between these airports :: More routes between these airports
Route: +CATH1 PSP V386 PMD AVE MAKRS SERFR SERFR SERFR2
File this flight plan on PilotEdge
Remarks:
Altitude:
(Current/Filed)
38,000ft
Speed:
(Current/Filed)
450kts
Departed: 06-Jun-17 06:59 PM
Arrived: 06-Jun-17 08:04 PM
Distance/Time
Traveled:
365nm/1:05
Distance/Time
To Go:
Arrived

Flight Plot

Page will automatically refresh every two minutes.

Flight plan parsing failed; only flown route is shown


Map Options




Map Legend


Flown Route
Filed Route
Departure Airport
Arrival Airport
Navaid (VOR, NDB)
Fix

Horizontal Profiles

Position Reports

Time Latitude Longitude Heading Altitude Ground
Speed
06-Jun-17 18:54 33.823828 -116.506542 205 486ft 0kts
06-Jun-17 18:55 33.823828 -116.506542 205 486ft 0kts
06-Jun-17 18:56 33.823828 -116.506542 205 486ft 0kts
06-Jun-17 18:57 33.824315 -116.506370 155 486ft 3kts
06-Jun-17 18:58 33.824134 -116.506232 148 486ft 13kts
06-Jun-17 18:59 33.822050 -116.502825 143 486ft 2kts
06-Jun-17 19:00 33.819722 -116.500703 145 486ft 13kts
06-Jun-17 19:01 33.820596 -116.499621 323 486ft 68kts
06-Jun-17 19:02 33.865303 -116.539349 321 4160ft 193kts
06-Jun-17 19:03 33.908876 -116.509541 99 7396ft 233kts
06-Jun-17 19:04 33.884968 -116.451820 113 10450ft 238kts
06-Jun-17 19:05 33.933886 -116.401787 338 13731ft 263kts
06-Jun-17 19:06 33.974136 -116.452573 290 15937ft 280kts
06-Jun-17 19:07 34.011676 -116.546842 293 17869ft 344kts
06-Jun-17 19:08 34.057999 -116.659853 294 19377ft 408kts
06-Jun-17 19:09 34.110051 -116.785270 294 22035ft 424kts
06-Jun-17 19:10 34.163281 -116.914415 294 24398ft 436kts
06-Jun-17 19:11 34.201492 -117.007186 294 25846ft 446kts
06-Jun-17 19:12 34.257516 -117.143610 294 27546ft 459kts
06-Jun-17 19:13 34.313839 -117.281027 294 29755ft 454kts
06-Jun-17 19:14 34.369305 -117.416813 293 31716ft 451kts
06-Jun-17 19:15 34.424733 -117.552828 293 33478ft 448kts
06-Jun-17 19:16 34.479781 -117.688282 293 34932ft 446kts
06-Jun-17 19:17 34.534289 -117.822756 293 36231ft 443kts
06-Jun-17 19:18 34.588369 -117.956513 293 37315ft 441kts
06-Jun-17 19:19 34.643375 -118.089138 298 37960ft 443kts
06-Jun-17 19:20 34.711778 -118.213767 300 37976ft 440kts
06-Jun-17 19:21 34.779003 -118.337809 299 37990ft 439kts
06-Jun-17 19:22 34.845402 -118.462251 299 38043ft 438kts
06-Jun-17 19:23 34.911892 -118.586585 299 38082ft 439kts
06-Jun-17 19:24 34.978551 -118.711657 299 38084ft 438kts
06-Jun-17 19:25 35.044877 -118.836255 299 38070ft 439kts
06-Jun-17 19:26 35.111111 -118.960963 299 38025ft 438kts
06-Jun-17 19:27 35.177307 -119.085749 299 37941ft 437kts
06-Jun-17 19:28 35.243350 -119.210611 299 37912ft 437kts
06-Jun-17 19:29 35.309290 -119.335420 299 37912ft 437kts
06-Jun-17 19:30 35.375146 -119.460337 299 37918ft 437kts
06-Jun-17 19:31 35.441131 -119.585740 300 37919ft 437kts
06-Jun-17 19:32 35.506889 -119.710925 300 37894ft 437kts
06-Jun-17 19:33 35.572481 -119.836050 300 37902ft 436kts
06-Jun-17 19:34 35.636739 -119.962295 291 37909ft 434kts
06-Jun-17 19:35 35.660023 -120.106345 275 37953ft 430kts
06-Jun-17 19:36 35.673755 -120.252380 275 37956ft 431kts
06-Jun-17 19:37 35.701244 -120.395125 292 37962ft 433kts
06-Jun-17 19:38 35.753169 -120.529169 293 37966ft 434kts
06-Jun-17 19:39 35.804552 -120.664036 292 37966ft 434kts
06-Jun-17 19:40 35.855652 -120.799006 292 37965ft 435kts
06-Jun-17 19:41 35.906609 -120.933939 292 37945ft 432kts
06-Jun-17 19:42 35.957426 -121.068936 292 35699ft 435kts
06-Jun-17 19:43 36.008583 -121.205156 293 33360ft 440kts
06-Jun-17 19:44 36.063565 -121.340708 305 30916ft 446kts
06-Jun-17 19:45 36.159673 -121.437092 325 28523ft 446kts
06-Jun-17 19:46 36.263724 -121.517621 325 26145ft 434kts
06-Jun-17 19:47 36.364049 -121.596423 324 23832ft 421kts
06-Jun-17 19:48 36.461572 -121.672798 324 21601ft 408kts
06-Jun-17 19:49 36.554903 -121.746238 324 19649ft 388kts
06-Jun-17 19:50 36.644252 -121.817203 324 17716ft 372kts
06-Jun-17 19:51 36.730014 -121.885151 325 15848ft 360kts
06-Jun-17 19:52 36.825872 -121.918230 345 14001ft 356kts
06-Jun-17 19:53 36.921617 -121.944441 345 12197ft 348kts
06-Jun-17 19:54 37.013529 -121.976614 341 10677ft 331kts
06-Jun-17 19:55 37.096426 -122.009750 341 9981ft 295kts
06-Jun-17 19:56 37.173016 -122.039679 341 8691ft 281kts
06-Jun-17 19:57 37.246004 -122.068278 341 7475ft 270kts
06-Jun-17 19:58 37.316980 -122.096047 341 6295ft 263kts
06-Jun-17 19:59 37.385815 -122.122997 340 5335ft 258kts
06-Jun-17 20:00 37.453042 -122.149480 340 5011ft 249kts
06-Jun-17 20:01 37.516262 -122.170028 342 5087ft 186kts
06-Jun-17 20:02 37.556827 -122.199947 290 2361ft 165kts
06-Jun-17 20:03 37.571416 -122.255660 287 1092ft 168kts
06-Jun-17 20:04 37.589628 -122.306058 297 713ft 143kts
06-Jun-17 20:05 37.608478 -122.351214 297 250ft 149kts
06-Jun-17 20:06 37.618726 -122.375220 292 21ft 23kts
06-Jun-17 20:07 37.618207 -122.380186 228 21ft 11kts

Navigation Log

Ident Type
Flight plan parsing failed, navigation log unavailable